sensor_id;sensor_type;location;lat;lon;timestamp;P1;durP1;ratioP1;P2;durP2;ratioP2
69381;SDS011;56560;50.692;12.844;2022-12-18T00:00:38;35.40;;;10.90;;
69381;SDS011;56560;50.692;12.844;2022-12-18T00:03:08;9.23;;;3.60;;
69381;SDS011;56560;50.692;12.844;2022-12-18T00:05:33;29.43;;;8.27;;
69381;SDS011;56560;50.692;12.844;2022-12-18T00:07:59;18.67;;;6.78;;
69381;SDS011;56560;50.692;12.844;2022-12-18T00:10:24;8.10;;;3.63;;
69381;SDS011;56560;50.692;12.844;2022-12-18T00:12:50;18.90;;;5.50;;
69381;SDS011;56560;50.692;12.844;2022-12-18T00:15:15;14.07;;;4.80;;
69381;SDS011;56560;50.692;12.844;2022-12-18T00:17:41;11.23;;;3.83;;
69381;SDS011;56560;50.692;12.844;2022-12-18T00:20:07;17.30;;;5.47;;
69381;SDS011;56560;50.692;12.844;2022-12-18T00:22:33;14.80;;;4.68;;
69381;SDS011;56560;50.692;12.844;2022-12-18T00:24:59;11.80;;;3.92;;
69381;SDS011;56560;50.692;12.844;2022-12-18T00:27:24;11.63;;;4.28;;
69381;SDS011;56560;50.692;12.844;2022-12-18T00:29:50;14.82;;;5.35;;
69381;SDS011;56560;50.692;12.844;2022-12-18T00:32:16;9.37;;;4.03;;
69381;SDS011;56560;50.692;12.844;2022-12-18T00:34:41;15.17;;;5.80;;
69381;SDS011;56560;50.692;12.844;2022-12-18T00:37:07;7.00;;;2.88;;
69381;SDS011;56560;50.692;12.844;2022-12-18T00:39:33;14.50;;;4.97;;
69381;SDS011;56560;50.692;12.844;2022-12-18T00:41:58;11.10;;;3.93;;
69381;SDS011;56560;50.692;12.844;2022-12-18T00:44:42;16.45;;;4.68;;
69381;SDS011;56560;50.692;12.844;2022-12-18T00:47:08;11.27;;;3.95;;
69381;SDS011;56560;50.692;12.844;2022-12-18T00:49:33;13.73;;;4.60;;
69381;SDS011;56560;50.692;12.844;2022-12-18T00:51:59;15.37;;;5.13;;
69381;SDS011;56560;50.692;12.844;2022-12-18T00:54:25;14.23;;;4.88;;
69381;SDS011;56560;50.692;12.844;2022-12-18T00:56:51;12.97;;;4.00;;
69381;SDS011;56560;50.692;12.844;2022-12-18T00:59:17;19.60;;;5.28;;
69381;SDS011;56560;50.692;12.844;2022-12-18T01:01:43;10.40;;;4.28;;
69381;SDS011;56560;50.692;12.844;2022-12-18T01:04:09;12.00;;;3.90;;
69381;SDS011;56560;50.692;12.844;2022-12-18T01:06:35;11.00;;;3.75;;
69381;SDS011;56560;50.692;12.844;2022-12-18T01:09:01;16.65;;;6.30;;
69381;SDS011;56560;50.692;12.844;2022-12-18T01:11:27;10.70;;;3.23;;
69381;SDS011;56560;50.692;12.844;2022-12-18T01:13:53;15.10;;;4.55;;
69381;SDS011;56560;50.692;12.844;2022-12-18T01:16:19;12.20;;;4.53;;
69381;SDS011;56560;50.692;12.844;2022-12-18T01:18:45;9.30;;;2.70;;
69381;SDS011;56560;50.692;12.844;2022-12-18T01:21:13;13.35;;;3.88;;
69381;SDS011;56560;50.692;12.844;2022-12-18T01:23:40;12.60;;;4.28;;
69381;SDS011;56560;50.692;12.844;2022-12-18T01:26:10;11.97;;;3.27;;
69381;SDS011;56560;50.692;12.844;2022-12-18T01:28:39;14.65;;;4.53;;
69381;SDS011;56560;50.692;12.844;2022-12-18T01:31:18;15.00;;;4.55;;
69381;SDS011;56560;50.692;12.844;2022-12-18T01:33:49;8.93;;;3.58;;
69381;SDS011;56560;50.692;12.844;2022-12-18T01:36:30;15.60;;;5.80;;
69381;SDS011;56560;50.692;12.844;2022-12-18T01:38:59;19.33;;;5.68;;
69381;SDS011;56560;50.692;12.844;2022-12-18T01:41:27;6.25;;;2.20;;
69381;SDS011;56560;50.692;12.844;2022-12-18T01:47:41;8.07;;;2.92;;
69381;SDS011;56560;50.692;12.844;2022-12-18T01:50:13;11.17;;;3.63;;
69381;SDS011;56560;50.692;12.844;2022-12-18T01:53:19;6.75;;;2.55;;
69381;SDS011;56560;50.692;12.844;2022-12-18T01:55:57;6.10;;;2.92;;
69381;SDS011;56560;50.692;12.844;2022-12-18T01:58:27;9.38;;;3.13;;
69381;SDS011;56560;50.692;12.844;2022-12-18T02:01:00;4.50;;;2.28;;
69381;SDS011;56560;50.692;12.844;2022-12-18T02:03:26;6.20;;;3.20;;
69381;SDS011;56560;50.692;12.844;2022-12-18T02:13:41;10.10;;;4.03;;
69381;SDS011;56560;50.692;12.844;2022-12-18T02:18:56;7.68;;;2.80;;
69381;SDS011;56560;50.692;12.844;2022-12-18T02:25:15;5.15;;;2.55;;
69381;SDS011;56560;50.692;12.844;2022-12-18T02:27:25;7.37;;;2.67;;
69381;SDS011;56560;50.692;12.844;2022-12-18T02:29:53;7.40;;;2.35;;
69381;SDS011;56560;50.692;12.844;2022-12-18T02:32:24;13.75;;;4.45;;
69381;SDS011;56560;50.692;12.844;2022-12-18T02:34:54;9.02;;;3.65;;
69381;SDS011;56560;50.692;12.844;2022-12-18T02:37:22;7.97;;;2.92;;
69381;SDS011;56560;50.692;12.844;2022-12-18T02:39:49;9.17;;;3.97;;
69381;SDS011;56560;50.692;12.844;2022-12-18T02:42:18;11.63;;;3.95;;
69381;SDS011;56560;50.692;12.844;2022-12-18T02:44:45;12.68;;;3.55;;
69381;SDS011;56560;50.692;12.844;2022-12-18T02:47:12;9.10;;;3.38;;
69381;SDS011;56560;50.692;12.844;2022-12-18T03:03:18;2.38;;;1.52;;
69381;SDS011;56560;50.692;12.844;2022-12-18T03:05:57;5.30;;;1.87;;
69381;SDS011;56560;50.692;12.844;2022-12-18T03:08:30;3.88;;;1.90;;
69381;SDS011;56560;50.692;12.844;2022-12-18T03:11:01;6.28;;;2.10;;
69381;SDS011;56560;50.692;12.844;2022-12-18T03:13:31;13.18;;;4.22;;
69381;SDS011;56560;50.692;12.844;2022-12-18T03:16:00;13.45;;;4.35;;
69381;SDS011;56560;50.692;12.844;2022-12-18T03:18:30;10.37;;;3.20;;
69381;SDS011;56560;50.692;12.844;2022-12-18T03:21:04;8.35;;;3.22;;
69381;SDS011;56560;50.692;12.844;2022-12-18T03:23:34;9.57;;;3.15;;
69381;SDS011;56560;50.692;12.844;2022-12-18T03:26:05;6.90;;;2.35;;
69381;SDS011;56560;50.692;12.844;2022-12-18T03:28:35;6.38;;;2.40;;
69381;SDS011;56560;50.692;12.844;2022-12-18T03:31:07;7.10;;;2.97;;
69381;SDS011;56560;50.692;12.844;2022-12-18T03:34:11;8.80;;;2.63;;
69381;SDS011;56560;50.692;12.844;2022-12-18T03:36:29;3.53;;;1.45;;
69381;SDS011;56560;50.692;12.844;2022-12-18T03:38:58;5.60;;;2.30;;
69381;SDS011;56560;50.692;12.844;2022-12-18T03:41:36;9.15;;;3.08;;
69381;SDS011;56560;50.692;12.844;2022-12-18T03:46:54;72.63;;;26.35;;
69381;SDS011;56560;50.692;12.844;2022-12-18T03:49:33;26.23;;;8.40;;
69381;SDS011;56560;50.692;12.844;2022-12-18T03:52:08;11.20;;;3.23;;
69381;SDS011;56560;50.692;12.844;2022-12-18T03:54:43;9.85;;;3.17;;
69381;SDS011;56560;50.692;12.844;2022-12-18T03:57:12;12.27;;;3.67;;
69381;SDS011;56560;50.692;12.844;2022-12-18T03:59:41;11.05;;;3.50;;
69381;SDS011;56560;50.692;12.844;2022-12-18T04:02:09;15.38;;;4.53;;
69381;SDS011;56560;50.692;12.844;2022-12-18T04:04:38;6.03;;;2.57;;
69381;SDS011;56560;50.692;12.844;2022-12-18T04:07:05;6.00;;;2.28;;
69381;SDS011;56560;50.692;12.844;2022-12-18T04:09:32;10.88;;;3.35;;
69381;SDS011;56560;50.692;12.844;2022-12-18T04:12:00;21.50;;;7.10;;
69381;SDS011;56560;50.692;12.844;2022-12-18T04:14:25;16.10;;;5.57;;
69381;SDS011;56560;50.692;12.844;2022-12-18T04:16:51;7.15;;;3.53;;
69381;SDS011;56560;50.692;12.844;2022-12-18T04:19:17;7.77;;;2.40;;
69381;SDS011;56560;50.692;12.844;2022-12-18T04:21:42;7.17;;;2.57;;
69381;SDS011;56560;50.692;12.844;2022-12-18T04:24:08;7.03;;;1.80;;
69381;SDS011;56560;50.692;12.844;2022-12-18T04:26:34;3.67;;;1.47;;
69381;SDS011;56560;50.692;12.844;2022-12-18T04:28:59;6.82;;;2.38;;
69381;SDS011;56560;50.692;12.844;2022-12-18T04:31:25;5.17;;;1.50;;
69381;SDS011;56560;50.692;12.844;2022-12-18T04:33:51;9.13;;;2.22;;
69381;SDS011;56560;50.692;12.844;2022-12-18T04:36:17;3.10;;;1.33;;
69381;SDS011;56560;50.692;12.844;2022-12-18T04:38:42;4.93;;;1.60;;
69381;SDS011;56560;50.692;12.844;2022-12-18T04:41:08;4.60;;;1.70;;
69381;SDS011;56560;50.692;12.844;2022-12-18T04:43:34;4.07;;;1.10;;
69381;SDS011;56560;50.692;12.844;2022-12-18T04:46:06;6.50;;;2.33;;
69381;SDS011;56560;50.692;12.844;2022-12-18T04:48:33;2.20;;;0.98;;
69381;SDS011;56560;50.692;12.844;2022-12-18T04:50:59;5.93;;;1.88;;
69381;SDS011;56560;50.692;12.844;2022-12-18T04:53:24;9.63;;;2.60;;
69381;SDS011;56560;50.692;12.844;2022-12-18T04:55:50;8.68;;;2.40;;
69381;SDS011;56560;50.692;12.844;2022-12-18T04:58:16;7.00;;;2.00;;
69381;SDS011;56560;50.692;12.844;2022-12-18T05:00:41;6.72;;;1.75;;
69381;SDS011;56560;50.692;12.844;2022-12-18T05:03:08;3.33;;;1.50;;
69381;SDS011;56560;50.692;12.844;2022-12-18T05:05:36;3.83;;;1.50;;
69381;SDS011;56560;50.692;12.844;2022-12-18T05:08:02;3.03;;;1.23;;
69381;SDS011;56560;50.692;12.844;2022-12-18T05:10:28;4.45;;;1.50;;
69381;SDS011;56560;50.692;12.844;2022-12-18T05:12:53;5.17;;;1.27;;
69381;SDS011;56560;50.692;12.844;2022-12-18T05:15:28;3.88;;;1.63;;
69381;SDS011;56560;50.692;12.844;2022-12-18T05:17:55;7.90;;;2.95;;
69381;SDS011;56560;50.692;12.844;2022-12-18T05:20:22;4.70;;;2.08;;
69381;SDS011;56560;50.692;12.844;2022-12-18T05:22:48;2.90;;;1.17;;
69381;SDS011;56560;50.692;12.844;2022-12-18T05:25:13;4.15;;;1.63;;
69381;SDS011;56560;50.692;12.844;2022-12-18T05:27:40;5.30;;;2.17;;
69381;SDS011;56560;50.692;12.844;2022-12-18T05:30:05;3.33;;;0.67;;
69381;SDS011;56560;50.692;12.844;2022-12-18T05:32:32;6.63;;;2.78;;
69381;SDS011;56560;50.692;12.844;2022-12-18T05:34:57;5.97;;;2.37;;
69381;SDS011;56560;50.692;12.844;2022-12-18T05:37:23;10.57;;;3.45;;
69381;SDS011;56560;50.692;12.844;2022-12-18T05:39:48;10.33;;;2.57;;
69381;SDS011;56560;50.692;12.844;2022-12-18T05:42:14;7.72;;;2.83;;
69381;SDS011;56560;50.692;12.844;2022-12-18T05:44:40;9.55;;;2.92;;
69381;SDS011;56560;50.692;12.844;2022-12-18T05:47:05;10.77;;;3.20;;
69381;SDS011;56560;50.692;12.844;2022-12-18T05:49:31;8.25;;;2.08;;
69381;SDS011;56560;50.692;12.844;2022-12-18T05:51:57;5.67;;;2.43;;
69381;SDS011;56560;50.692;12.844;2022-12-18T05:54:22;10.03;;;2.83;;
69381;SDS011;56560;50.692;12.844;2022-12-18T05:56:48;6.68;;;2.40;;
69381;SDS011;56560;50.692;12.844;2022-12-18T05:59:13;9.30;;;2.43;;
69381;SDS011;56560;50.692;12.844;2022-12-18T06:01:39;9.07;;;3.53;;
69381;SDS011;56560;50.692;12.844;2022-12-18T06:04:05;5.03;;;2.10;;
69381;SDS011;56560;50.692;12.844;2022-12-18T06:06:31;4.85;;;2.03;;
69381;SDS011;56560;50.692;12.844;2022-12-18T06:08:56;7.45;;;3.55;;
69381;SDS011;56560;50.692;12.844;2022-12-18T06:11:23;6.50;;;2.38;;
69381;SDS011;56560;50.692;12.844;2022-12-18T06:13:51;8.30;;;2.47;;
69381;SDS011;56560;50.692;12.844;2022-12-18T06:16:18;9.23;;;3.33;;
69381;SDS011;56560;50.692;12.844;2022-12-18T06:18:44;7.68;;;3.25;;
69381;SDS011;56560;50.692;12.844;2022-12-18T06:21:09;12.27;;;4.70;;
69381;SDS011;56560;50.692;12.844;2022-12-18T06:23:35;15.13;;;4.03;;
69381;SDS011;56560;50.692;12.844;2022-12-18T06:26:08;8.63;;;3.50;;
69381;SDS011;56560;50.692;12.844;2022-12-18T06:28:35;7.50;;;3.25;;
69381;SDS011;56560;50.692;12.844;2022-12-18T06:31:02;9.30;;;3.50;;
69381;SDS011;56560;50.692;12.844;2022-12-18T06:33:29;11.35;;;3.97;;
69381;SDS011;56560;50.692;12.844;2022-12-18T06:35:59;13.55;;;3.58;;
69381;SDS011;56560;50.692;12.844;2022-12-18T06:38:27;12.10;;;5.38;;
69381;SDS011;56560;50.692;12.844;2022-12-18T06:40:52;10.20;;;3.90;;
69381;SDS011;56560;50.692;12.844;2022-12-18T06:43:18;13.10;;;5.10;;
69381;SDS011;56560;50.692;12.844;2022-12-18T06:45:44;10.88;;;3.35;;
69381;SDS011;56560;50.692;12.844;2022-12-18T06:48:09;15.87;;;5.70;;
69381;SDS011;56560;50.692;12.844;2022-12-18T06:50:35;8.98;;;3.63;;
69381;SDS011;56560;50.692;12.844;2022-12-18T06:53:00;22.70;;;10.03;;
69381;SDS011;56560;50.692;12.844;2022-12-18T06:55:26;19.77;;;6.50;;
69381;SDS011;56560;50.692;12.844;2022-12-18T06:57:52;12.18;;;4.80;;
69381;SDS011;56560;50.692;12.844;2022-12-18T07:00:17;9.70;;;4.87;;
69381;SDS011;56560;50.692;12.844;2022-12-18T07:02:43;15.95;;;5.40;;
69381;SDS011;56560;50.692;12.844;2022-12-18T07:05:09;13.30;;;5.73;;
69381;SDS011;56560;50.692;12.844;2022-12-18T07:07:34;9.63;;;3.13;;
69381;SDS011;56560;50.692;12.844;2022-12-18T07:10:01;5.82;;;2.35;;
69381;SDS011;56560;50.692;12.844;2022-12-18T07:12:27;11.23;;;3.55;;
69381;SDS011;56560;50.692;12.844;2022-12-18T07:14:52;18.63;;;5.03;;
69381;SDS011;56560;50.692;12.844;2022-12-18T07:17:18;9.45;;;3.78;;
69381;SDS011;56560;50.692;12.844;2022-12-18T07:19:44;10.10;;;4.15;;
69381;SDS011;56560;50.692;12.844;2022-12-18T07:22:09;13.13;;;4.10;;
69381;SDS011;56560;50.692;12.844;2022-12-18T07:24:35;15.20;;;4.85;;
69381;SDS011;56560;50.692;12.844;2022-12-18T07:27:01;13.97;;;5.63;;
69381;SDS011;56560;50.692;12.844;2022-12-18T07:29:27;16.73;;;5.88;;
69381;SDS011;56560;50.692;12.844;2022-12-18T07:31:52;10.57;;;4.30;;
69381;SDS011;56560;50.692;12.844;2022-12-18T07:34:18;15.65;;;7.15;;
69381;SDS011;56560;50.692;12.844;2022-12-18T07:36:44;20.60;;;7.47;;
69381;SDS011;56560;50.692;12.844;2022-12-18T07:39:10;8.70;;;4.07;;
69381;SDS011;56560;50.692;12.844;2022-12-18T07:41:39;9.97;;;3.07;;
69381;SDS011;56560;50.692;12.844;2022-12-18T07:44:10;7.93;;;3.60;;
69381;SDS011;56560;50.692;12.844;2022-12-18T07:46:37;7.13;;;2.83;;
69381;SDS011;56560;50.692;12.844;2022-12-18T07:49:02;18.13;;;5.50;;
69381;SDS011;56560;50.692;12.844;2022-12-18T07:51:28;12.80;;;5.25;;
69381;SDS011;56560;50.692;12.844;2022-12-18T07:53:54;9.68;;;3.50;;
69381;SDS011;56560;50.692;12.844;2022-12-18T07:56:20;24.13;;;9.17;;
69381;SDS011;56560;50.692;12.844;2022-12-18T07:58:46;15.45;;;7.28;;
69381;SDS011;56560;50.692;12.844;2022-12-18T08:01:12;15.07;;;5.93;;
69381;SDS011;56560;50.692;12.844;2022-12-18T08:03:38;15.00;;;4.95;;
69381;SDS011;56560;50.692;12.844;2022-12-18T08:06:05;21.08;;;7.70;;
69381;SDS011;56560;50.692;12.844;2022-12-18T08:08:33;13.85;;;6.35;;
69381;SDS011;56560;50.692;12.844;2022-12-18T08:10:59;24.43;;;8.77;;
69381;SDS011;56560;50.692;12.844;2022-12-18T08:13:25;21.17;;;7.40;;
69381;SDS011;56560;50.692;12.844;2022-12-18T08:15:55;16.73;;;5.72;;
69381;SDS011;56560;50.692;12.844;2022-12-18T08:18:22;9.82;;;3.92;;
69381;SDS011;56560;50.692;12.844;2022-12-18T08:20:48;23.20;;;7.67;;
69381;SDS011;56560;50.692;12.844;2022-12-18T08:23:13;14.10;;;5.97;;
69381;SDS011;56560;50.692;12.844;2022-12-18T08:25:39;15.67;;;7.10;;
69381;SDS011;56560;50.692;12.844;2022-12-18T08:28:05;11.48;;;5.63;;
69381;SDS011;56560;50.692;12.844;2022-12-18T08:30:30;17.65;;;7.10;;
69381;SDS011;56560;50.692;12.844;2022-12-18T08:32:56;18.70;;;7.80;;
69381;SDS011;56560;50.692;12.844;2022-12-18T08:35:21;15.85;;;5.28;;
69381;SDS011;56560;50.692;12.844;2022-12-18T08:37:47;15.80;;;4.70;;
69381;SDS011;56560;50.692;12.844;2022-12-18T08:40:13;19.33;;;7.10;;
69381;SDS011;56560;50.692;12.844;2022-12-18T08:42:38;21.17;;;6.10;;
69381;SDS011;56560;50.692;12.844;2022-12-18T08:45:23;31.45;;;11.73;;
69381;SDS011;56560;50.692;12.844;2022-12-18T08:47:49;34.70;;;11.95;;
69381;SDS011;56560;50.692;12.844;2022-12-18T08:50:15;18.27;;;5.47;;
69381;SDS011;56560;50.692;12.844;2022-12-18T08:52:44;112.22;;;37.50;;
69381;SDS011;56560;50.692;12.844;2022-12-18T08:55:12;63.70;;;22.37;;
69381;SDS011;56560;50.692;12.844;2022-12-18T08:57:38;48.72;;;17.50;;
69381;SDS011;56560;50.692;12.844;2022-12-18T09:00:04;47.60;;;14.40;;
69381;SDS011;56560;50.692;12.844;2022-12-18T09:02:30;30.73;;;10.53;;
69381;SDS011;56560;50.692;12.844;2022-12-18T09:04:55;31.40;;;10.63;;
69381;SDS011;56560;50.692;12.844;2022-12-18T09:07:21;30.87;;;11.03;;
69381;SDS011;56560;50.692;12.844;2022-12-18T09:09:47;53.70;;;16.05;;
69381;SDS011;56560;50.692;12.844;2022-12-18T09:12:12;37.80;;;12.07;;
69381;SDS011;56560;50.692;12.844;2022-12-18T09:14:38;38.17;;;12.33;;
69381;SDS011;56560;50.692;12.844;2022-12-18T09:17:04;38.03;;;13.40;;
69381;SDS011;56560;50.692;12.844;2022-12-18T09:19:29;32.50;;;12.10;;
69381;SDS011;56560;50.692;12.844;2022-12-18T09:21:55;42.35;;;14.90;;
69381;SDS011;56560;50.692;12.844;2022-12-18T09:24:22;47.00;;;16.03;;
69381;SDS011;56560;50.692;12.844;2022-12-18T09:26:47;44.92;;;16.33;;
69381;SDS011;56560;50.692;12.844;2022-12-18T09:29:13;35.23;;;9.40;;
69381;SDS011;56560;50.692;12.844;2022-12-18T09:31:40;49.20;;;16.40;;
69381;SDS011;56560;50.692;12.844;2022-12-18T09:34:06;35.47;;;12.63;;
69381;SDS011;56560;50.692;12.844;2022-12-18T09:36:32;39.73;;;14.23;;
69381;SDS011;56560;50.692;12.844;2022-12-18T09:38:57;28.05;;;9.68;;
69381;SDS011;56560;50.692;12.844;2022-12-18T09:44:05;15.20;;;5.07;;
69381;SDS011;56560;50.692;12.844;2022-12-18T09:46:50;34.85;;;12.43;;
69381;SDS011;56560;50.692;12.844;2022-12-18T09:49:21;39.00;;;12.50;;
69381;SDS011;56560;50.692;12.844;2022-12-18T09:51:52;36.20;;;11.25;;
69381;SDS011;56560;50.692;12.844;2022-12-18T09:54:26;37.22;;;11.68;;
69381;SDS011;56560;50.692;12.844;2022-12-18T09:57:03;36.73;;;11.70;;
69381;SDS011;56560;50.692;12.844;2022-12-18T09:59:36;27.73;;;9.38;;
69381;SDS011;56560;50.692;12.844;2022-12-18T10:02:15;38.83;;;12.98;;
69381;SDS011;56560;50.692;12.844;2022-12-18T10:04:43;32.25;;;10.32;;
69381;SDS011;56560;50.692;12.844;2022-12-18T10:07:18;18.90;;;7.22;;
69381;SDS011;56560;50.692;12.844;2022-12-18T10:10:10;43.43;;;14.50;;
69381;SDS011;56560;50.692;12.844;2022-12-18T10:12:49;31.90;;;11.25;;
69381;SDS011;56560;50.692;12.844;2022-12-18T10:21:16;28.13;;;9.63;;
69381;SDS011;56560;50.692;12.844;2022-12-18T10:26:31;25.23;;;9.48;;
69381;SDS011;56560;50.692;12.844;2022-12-18T10:28:57;31.67;;;10.45;;
69381;SDS011;56560;50.692;12.844;2022-12-18T10:31:24;31.80;;;11.23;;
69381;SDS011;56560;50.692;12.844;2022-12-18T10:33:50;36.25;;;13.45;;
69381;SDS011;56560;50.692;12.844;2022-12-18T10:36:16;41.47;;;13.70;;
69381;SDS011;56560;50.692;12.844;2022-12-18T10:38:42;42.35;;;15.68;;
69381;SDS011;56560;50.692;12.844;2022-12-18T10:43:43;32.90;;;11.98;;
69381;SDS011;56560;50.692;12.844;2022-12-18T10:51:20;39.40;;;12.07;;
69381;SDS011;56560;50.692;12.844;2022-12-18T10:53:51;34.65;;;12.50;;
69381;SDS011;56560;50.692;12.844;2022-12-18T10:56:20;24.17;;;8.50;;
69381;SDS011;56560;50.692;12.844;2022-12-18T10:58:55;37.17;;;13.75;;
69381;SDS011;56560;50.692;12.844;2022-12-18T11:06:56;32.72;;;12.68;;
69381;SDS011;56560;50.692;12.844;2022-12-18T11:09:30;30.70;;;11.70;;
69381;SDS011;56560;50.692;12.844;2022-12-18T11:11:58;30.77;;;11.88;;
69381;SDS011;56560;50.692;12.844;2022-12-18T11:14:27;25.92;;;9.45;;
69381;SDS011;56560;50.692;12.844;2022-12-18T11:17:20;26.73;;;9.80;;
69381;SDS011;56560;50.692;12.844;2022-12-18T11:20:05;38.72;;;13.57;;
69381;SDS011;56560;50.692;12.844;2022-12-18T11:22:59;30.70;;;11.27;;
69381;SDS011;56560;50.692;12.844;2022-12-18T11:25:31;36.72;;;13.57;;
69381;SDS011;56560;50.692;12.844;2022-12-18T11:28:02;34.55;;;12.45;;
69381;SDS011;56560;50.692;12.844;2022-12-18T11:30:38;33.50;;;13.50;;
69381;SDS011;56560;50.692;12.844;2022-12-18T11:35:35;29.70;;;12.00;;
69381;SDS011;56560;50.692;12.844;2022-12-18T11:38:17;29.20;;;11.13;;
69381;SDS011;56560;50.692;12.844;2022-12-18T11:40:50;27.85;;;9.30;;
69381;SDS011;56560;50.692;12.844;2022-12-18T11:43:27;38.80;;;15.40;;
69381;SDS011;56560;50.692;12.844;2022-12-18T11:48:50;33.30;;;13.65;;
69381;SDS011;56560;50.692;12.844;2022-12-18T11:51:26;33.92;;;13.68;;
69381;SDS011;56560;50.692;12.844;2022-12-18T11:53:58;28.40;;;11.02;;
69381;SDS011;56560;50.692;12.844;2022-12-18T11:56:39;32.67;;;13.87;;
69381;SDS011;56560;50.692;12.844;2022-12-18T11:59:29;34.30;;;15.52;;
69381;SDS011;56560;50.692;12.844;2022-12-18T12:34:23;32.88;;;14.85;;
69381;SDS011;56560;50.692;12.844;2022-12-18T12:40:51;48.80;;;20.33;;
69381;SDS011;56560;50.692;12.844;2022-12-18T12:43:27;62.38;;;26.08;;
69381;SDS011;56560;50.692;12.844;2022-12-18T12:46:11;70.90;;;27.60;;
69381;SDS011;56560;50.692;12.844;2022-12-18T12:48:42;109.90;;;43.28;;
69381;SDS011;56560;50.692;12.844;2022-12-18T12:51:26;71.77;;;29.23;;
69381;SDS011;56560;50.692;12.844;2022-12-18T12:53:56;43.67;;;18.98;;
69381;SDS011;56560;50.692;12.844;2022-12-18T12:56:22;53.95;;;22.42;;
69381;SDS011;56560;50.692;12.844;2022-12-18T13:01:53;20.85;;;8.90;;
69381;SDS011;56560;50.692;12.844;2022-12-18T13:07:13;19.33;;;7.45;;
69381;SDS011;56560;50.692;12.844;2022-12-18T13:18:19;14.67;;;5.40;;
69381;SDS011;56560;50.692;12.844;2022-12-18T13:20:48;14.25;;;4.78;;
69381;SDS011;56560;50.692;12.844;2022-12-18T13:31:13;14.15;;;4.95;;
69381;SDS011;56560;50.692;12.844;2022-12-18T13:36:51;13.68;;;4.55;;
69381;SDS011;56560;50.692;12.844;2022-12-18T13:41:47;12.93;;;4.43;;
69381;SDS011;56560;50.692;12.844;2022-12-18T13:47:27;12.50;;;4.28;;
69381;SDS011;56560;50.692;12.844;2022-12-18T13:49:58;18.15;;;7.00;;
69381;SDS011;56560;50.692;12.844;2022-12-18T13:52:26;13.70;;;4.60;;
69381;SDS011;56560;50.692;12.844;2022-12-18T13:54:59;20.40;;;6.78;;
69381;SDS011;56560;50.692;12.844;2022-12-18T13:59:55;16.08;;;6.20;;
69381;SDS011;56560;50.692;12.844;2022-12-18T14:02:22;16.23;;;5.28;;
69381;SDS011;56560;50.692;12.844;2022-12-18T14:04:51;15.68;;;5.03;;
69381;SDS011;56560;50.692;12.844;2022-12-18T14:07:18;11.98;;;3.53;;
69381;SDS011;56560;50.692;12.844;2022-12-18T14:09:49;52.80;;;30.10;;
69381;SDS011;56560;50.692;12.844;2022-12-18T14:12:32;16.65;;;5.90;;
69381;SDS011;56560;50.692;12.844;2022-12-18T14:17:51;18.33;;;5.72;;
69381;SDS011;56560;50.692;12.844;2022-12-18T14:20:19;18.23;;;6.07;;
69381;SDS011;56560;50.692;12.844;2022-12-18T14:22:45;14.00;;;4.97;;
69381;SDS011;56560;50.692;12.844;2022-12-18T14:27:53;15.02;;;4.53;;
69381;SDS011;56560;50.692;12.844;2022-12-18T14:30:32;37.53;;;12.02;;
69381;SDS011;56560;50.692;12.844;2022-12-18T14:41:15;61.67;;;19.10;;
69381;SDS011;56560;50.692;12.844;2022-12-18T14:43:42;43.47;;;14.77;;
69381;SDS011;56560;50.692;12.844;2022-12-18T14:49:03;40.10;;;13.63;;
69381;SDS011;56560;50.692;12.844;2022-12-18T14:51:42;24.65;;;9.05;;
69381;SDS011;56560;50.692;12.844;2022-12-18T14:54:15;32.78;;;10.93;;
69381;SDS011;56560;50.692;12.844;2022-12-18T14:56:43;24.88;;;8.38;;
69381;SDS011;56560;50.692;12.844;2022-12-18T14:59:24;24.33;;;8.45;;
69381;SDS011;56560;50.692;12.844;2022-12-18T15:04:40;26.42;;;8.40;;
69381;SDS011;56560;50.692;12.844;2022-12-18T15:12:49;33.47;;;9.60;;
69381;SDS011;56560;50.692;12.844;2022-12-18T15:18:03;10.95;;;4.75;;
69381;SDS011;56560;50.692;12.844;2022-12-18T15:20:32;13.80;;;4.72;;
69381;SDS011;56560;50.692;12.844;2022-12-18T15:23:04;19.10;;;5.00;;
69381;SDS011;56560;50.692;12.844;2022-12-18T15:28:03;24.20;;;6.93;;
69381;SDS011;56560;50.692;12.844;2022-12-18T15:30:40;17.05;;;5.80;;
69381;SDS011;56560;50.692;12.844;2022-12-18T15:33:26;24.65;;;8.52;;
69381;SDS011;56560;50.692;12.844;2022-12-18T15:35:59;8.70;;;3.45;;
69381;SDS011;56560;50.692;12.844;2022-12-18T15:38:27;16.37;;;5.80;;
69381;SDS011;56560;50.692;12.844;2022-12-18T15:40:53;15.77;;;5.50;;
69381;SDS011;56560;50.692;12.844;2022-12-18T15:43:22;19.80;;;7.60;;
69381;SDS011;56560;50.692;12.844;2022-12-18T15:48:26;22.13;;;7.20;;
69381;SDS011;56560;50.692;12.844;2022-12-18T15:50:53;22.23;;;7.23;;
69381;SDS011;56560;50.692;12.844;2022-12-18T15:53:21;28.75;;;8.80;;
69381;SDS011;56560;50.692;12.844;2022-12-18T15:55:53;36.60;;;12.10;;
69381;SDS011;56560;50.692;12.844;2022-12-18T15:58:37;28.90;;;9.60;;
69381;SDS011;56560;50.692;12.844;2022-12-18T16:01:03;30.90;;;9.37;;
69381;SDS011;56560;50.692;12.844;2022-12-18T16:03:29;34.80;;;10.70;;
69381;SDS011;56560;50.692;12.844;2022-12-18T16:05:54;20.50;;;7.40;;
69381;SDS011;56560;50.692;12.844;2022-12-18T16:08:20;53.42;;;19.40;;
69381;SDS011;56560;50.692;12.844;2022-12-18T16:10:46;28.33;;;8.93;;
69381;SDS011;56560;50.692;12.844;2022-12-18T16:13:20;28.77;;;10.02;;
69381;SDS011;56560;50.692;12.844;2022-12-18T16:15:46;25.33;;;7.70;;
69381;SDS011;56560;50.692;12.844;2022-12-18T16:18:11;22.37;;;7.93;;
69381;SDS011;56560;50.692;12.844;2022-12-18T16:20:37;23.55;;;7.85;;
69381;SDS011;56560;50.692;12.844;2022-12-18T16:23:03;25.95;;;8.80;;
69381;SDS011;56560;50.692;12.844;2022-12-18T16:25:29;33.80;;;12.43;;
69381;SDS011;56560;50.692;12.844;2022-12-18T16:27:56;37.13;;;12.48;;
69381;SDS011;56560;50.692;12.844;2022-12-18T16:30:23;23.98;;;8.27;;
69381;SDS011;56560;50.692;12.844;2022-12-18T16:32:52;37.22;;;14.13;;
69381;SDS011;56560;50.692;12.844;2022-12-18T16:35:25;27.15;;;9.25;;
69381;SDS011;56560;50.692;12.844;2022-12-18T16:37:51;49.37;;;17.33;;
69381;SDS011;56560;50.692;12.844;2022-12-18T16:40:17;31.48;;;10.57;;
69381;SDS011;56560;50.692;12.844;2022-12-18T16:42:44;37.58;;;10.80;;
69381;SDS011;56560;50.692;12.844;2022-12-18T16:45:11;33.03;;;8.40;;
69381;SDS011;56560;50.692;12.844;2022-12-18T16:47:39;38.58;;;10.82;;
69381;SDS011;56560;50.692;12.844;2022-12-18T16:50:05;34.60;;;10.45;;
69381;SDS011;56560;50.692;12.844;2022-12-18T16:52:32;33.15;;;11.98;;
69381;SDS011;56560;50.692;12.844;2022-12-18T16:54:58;14.75;;;5.13;;
69381;SDS011;56560;50.692;12.844;2022-12-18T16:57:24;24.10;;;7.27;;
69381;SDS011;56560;50.692;12.844;2022-12-18T16:59:50;32.07;;;11.40;;
69381;SDS011;56560;50.692;12.844;2022-12-18T17:02:20;21.35;;;6.80;;
69381;SDS011;56560;50.692;12.844;2022-12-18T17:04:47;15.43;;;5.50;;
69381;SDS011;56560;50.692;12.844;2022-12-18T17:07:13;24.60;;;8.07;;
69381;SDS011;56560;50.692;12.844;2022-12-18T17:09:40;32.88;;;11.75;;
69381;SDS011;56560;50.692;12.844;2022-12-18T17:12:06;19.90;;;7.57;;
69381;SDS011;56560;50.692;12.844;2022-12-18T17:14:32;25.67;;;8.53;;
69381;SDS011;56560;50.692;12.844;2022-12-18T17:16:58;28.50;;;9.70;;